createdAt,value
2023-01-29T00:02:53.167Z,-1.50
2023-01-29T00:12:58.031Z,-1.50
2023-01-29T00:23:01.575Z,-1.50
2023-01-29T00:33:07.118Z,-1.50
2023-01-29T00:43:28.387Z,-1.50
2023-01-29T00:53:33.634Z,-1.50
2023-01-29T01:03:42.432Z,-1.50
2023-01-29T01:13:47.507Z,-1.50
2023-01-29T01:23:52.012Z,-1.60
2023-01-29T01:33:57.925Z,-1.50
2023-01-29T01:44:05.393Z,-1.60
2023-01-29T01:54:15.490Z,-1.70
2023-01-29T02:04:40.647Z,-1.80
2023-01-29T02:14:46.634Z,-1.80
2023-01-29T02:25:28.699Z,-1.90
2023-01-29T02:35:42.623Z,-1.90
2023-01-29T02:45:52.952Z,-1.90
2023-01-29T02:56:05.387Z,-1.80
2023-01-29T03:06:20.749Z,-1.90
2023-01-29T03:16:32.418Z,-2.00
2023-01-29T03:26:53.767Z,-2.00
2023-01-29T03:37:03.618Z,-2.00
2023-01-29T03:47:18.653Z,-2.10
2023-01-29T03:57:35.395Z,-2.10
2023-01-29T04:07:43.493Z,-2.20
2023-01-29T04:17:54.411Z,-2.20
2023-01-29T04:28:12.707Z,-2.30
2023-01-29T04:38:29.541Z,-2.40
2023-01-29T04:48:49.013Z,-2.40
2023-01-29T04:59:00.220Z,-2.40
2023-01-29T05:09:04.819Z,-2.40
2023-01-29T05:19:10.755Z,-2.40
2023-01-29T05:29:14.274Z,-2.40
2023-01-29T05:39:19.102Z,-2.60
2023-01-29T05:49:22.792Z,-2.50
2023-01-29T05:59:28.037Z,-2.70
2023-01-29T06:09:31.516Z,-2.90
2023-01-29T06:19:36.433Z,-3.00
2023-01-29T06:29:39.901Z,-2.80
2023-01-29T06:39:45.103Z,-3.00
2023-01-29T06:49:48.603Z,-3.10
2023-01-29T06:59:53.550Z,-3.00
2023-01-29T07:09:56.975Z,-3.00
2023-01-29T07:20:01.841Z,-3.00
2023-01-29T07:30:06.503Z,-2.80
2023-01-29T07:40:13.370Z,-2.90
2023-01-29T07:50:17.610Z,-2.80
2023-01-29T08:00:23.723Z,-2.80
2023-01-29T08:10:27.678Z,-2.00
2023-01-29T08:20:32.659Z,-1.00
2023-01-29T08:30:36.752Z,0.80
2023-01-29T08:40:41.628Z,2.40
2023-01-29T08:50:45.124Z,1.30
2023-01-29T09:00:50.279Z,0.70
2023-01-29T09:10:53.763Z,4.20
2023-01-29T09:20:58.987Z,8.90
2023-01-29T09:31:03.882Z,8.20
2023-01-29T09:41:24.733Z,5.60
2023-01-29T09:51:35.257Z,2.80
2023-01-29T10:01:48.768Z,1.60
2023-01-29T10:12:03.978Z,0.70
2023-01-29T10:22:44.197Z,0.30
2023-01-29T10:32:48.969Z,-0.20
2023-01-29T10:43:04.605Z,-0.40
2023-01-29T10:53:34.760Z,0.10
2023-01-29T11:03:40.204Z,1.20
2023-01-29T11:13:50.182Z,10.40
2023-01-29T11:24:09.123Z,8.00
2023-01-29T11:34:20.636Z,2.90
2023-01-29T11:44:34.027Z,1.40
2023-01-29T11:54:44.839Z,7.50
2023-01-29T12:04:50.302Z,3.40
2023-01-29T12:15:07.475Z,2.10
2023-01-29T12:25:24.239Z,2.90
2023-01-29T12:35:32.420Z,4.10
2023-01-29T12:45:38.967Z,2.70
2023-01-29T12:55:47.781Z,0.70
2023-01-29T13:05:56.636Z,0.10
2023-01-29T13:16:02.005Z,-0.40
2023-01-29T13:26:07.507Z,0.20
2023-01-29T13:36:19.705Z,0.60
2023-01-29T13:46:24.875Z,0.10
2023-01-29T13:56:47.884Z,-0.40
2023-01-29T14:06:54.513Z,-0.60
2023-01-29T14:17:03.294Z,-0.30
2023-01-29T14:27:20.944Z,-0.60
2023-01-29T14:37:36.158Z,-0.40
2023-01-29T14:48:16.547Z,-0.50
2023-01-29T14:58:26.345Z,-1.20
2023-01-29T15:08:39.428Z,-1.90
2023-01-29T15:18:44.426Z,-2.30
2023-01-29T15:29:03.354Z,-2.60
2023-01-29T15:39:18.842Z,-2.90
2023-01-29T15:49:31.957Z,-3.20
2023-01-29T15:59:46.170Z,-3.40
2023-01-29T16:09:52.456Z,-3.50
2023-01-29T16:20:00.315Z,-3.40
2023-01-29T16:30:08.385Z,-3.60
2023-01-29T16:40:23.129Z,-3.70
2023-01-29T16:50:40.591Z,-3.60
2023-01-29T17:00:54.100Z,-3.40
2023-01-29T17:10:59.916Z,-3.10
2023-01-29T17:21:03.683Z,-2.90
2023-01-29T17:31:09.214Z,-3.00
2023-01-29T17:41:20.437Z,-2.90
2023-01-29T17:51:25.339Z,-3.10
2023-01-29T18:01:28.947Z,-3.20
2023-01-29T18:11:35.239Z,-2.90
2023-01-29T18:21:38.747Z,-2.90
2023-01-29T18:31:43.797Z,-2.70
2023-01-29T18:41:49.669Z,-2.70
2023-01-29T18:51:58.068Z,-2.70
2023-01-29T19:02:03.685Z,-2.70
2023-01-29T19:12:09.765Z,-2.80
2023-01-29T19:22:13.478Z,-2.80
2023-01-29T19:32:20.898Z,-2.70
2023-01-29T19:42:24.845Z,-2.70
2023-01-29T19:52:50.203Z,-2.70
2023-01-29T20:02:54.846Z,-2.70
2023-01-29T20:13:00.596Z,-2.60
2023-01-29T20:23:07.368Z,-2.70
2023-01-29T20:33:15.538Z,-2.70
2023-01-29T20:43:23.425Z,-2.70
2023-01-29T20:53:30.471Z,-2.60
2023-01-29T21:03:34.786Z,-2.60
2023-01-29T21:13:40.319Z,-2.60
2023-01-29T21:23:46.241Z,-2.70
2023-01-29T21:33:51.542Z,-2.50
2023-01-29T21:43:55.012Z,-2.50
2023-01-29T21:53:59.930Z,-2.70
2023-01-29T22:04:03.808Z,-2.80
2023-01-29T22:14:09.262Z,-2.80
2023-01-29T22:24:12.972Z,-3.10
2023-01-29T22:34:17.761Z,-3.40
2023-01-29T22:44:21.206Z,-3.30
2023-01-29T22:54:26.080Z,-3.60
2023-01-29T23:04:29.666Z,-4.10
2023-01-29T23:14:34.751Z,-4.60
2023-01-29T23:24:38.356Z,-4.70
2023-01-29T23:34:43.224Z,-4.80
2023-01-29T23:44:46.717Z,-4.60
2023-01-29T23:54:51.529Z,-4.30
